Time;durP1;ratioP1;P1;durP2;ratioP2;P2;SDS_P1;SDS_P2;PMS_P1;PMS_P2;Temp;Humidity;BMP_temperature;BMP_pressure;BME280_temperature;BME280_humidity;BME280_pressure;Samples;Min_cycle;Max_cycle;Signal;HPM_P1;HPM_P2
2023/03/13 00:02:15;;;;;;;14.77;5.53;;;11.50;99.90;;;;;;5050679;28;20202;-93
2023/03/13 00:04:43;;;;;;;14.67;4.90;;;11.70;99.90;;;;;;5051558;28;20188;-87
2023/03/13 00:07:12;;;;;;;13.40;4.93;;;11.60;99.90;;;;;;5059013;28;20169;-87
2023/03/13 00:09:39;;;;;;;12.00;5.00;;;11.60;99.90;;;;;;5059604;28;20167;-90
2023/03/13 00:12:07;;;;;;;14.93;4.47;;;11.50;99.90;;;;;;5058323;28;20171;-92
2023/03/13 00:14:39;;;;;;;13.07;4.10;;;11.60;99.90;;;;;;5053277;28;20197;-90
2023/03/13 00:17:07;;;;;;;16.37;4.47;;;11.60;99.90;;;;;;5052717;28;20216;-92
2023/03/13 00:19:34;;;;;;;13.37;5.00;;;11.70;99.90;;;;;;5047058;28;20170;-93
2023/03/13 00:22:02;;;;;;;12.67;4.67;;;11.70;99.90;;;;;;5048275;28;20530;-92
2023/03/13 00:24:36;;;;;;;13.87;4.57;;;11.70;99.90;;;;;;5046450;28;20170;-91
2023/03/13 00:27:03;;;;;;;14.00;4.63;;;11.70;99.90;;;;;;5045888;28;20225;-92
2023/03/13 00:29:31;;;;;;;17.17;5.17;;;11.70;99.90;;;;;;5051943;28;20211;-92
2023/03/13 00:31:57;;;;;;;13.03;4.50;;;11.70;99.90;;;;;;5055478;28;20154;-89
2023/03/13 00:34:26;;;;;;;14.13;4.70;;;11.70;99.90;;;;;;5054467;28;20609;-89
2023/03/13 00:37:02;;;;;;;14.90;5.17;;;11.70;99.90;;;;;;5051518;28;20201;-92
2023/03/13 00:39:29;;;;;;;12.13;5.07;;;11.60;99.90;;;;;;5047361;28;20227;-92
2023/03/13 00:41:54;;;;;;;12.90;5.10;;;11.60;99.90;;;;;;5059285;28;20229;-91
2023/03/13 00:44:23;;;;;;;10.27;4.70;;;11.60;99.90;;;;;;5059272;28;20184;-92
2023/03/13 00:46:49;;;;;;;14.43;5.20;;;11.60;99.90;;;;;;5056247;28;20178;-93
2023/03/13 00:52:37;;;;;;;9.27;4.80;;;11.60;99.90;;;;;;5040250;28;20196;-89
2023/03/13 00:55:06;;;;;;;10.13;4.60;;;11.60;99.90;;;;;;5042682;28;20181;-89
2023/03/13 00:57:36;;;;;;;11.17;4.37;;;11.70;99.90;;;;;;5038411;28;20228;-88
2023/03/13 01:00:06;;;;;;;10.17;5.43;;;11.70;99.90;;;;;;5057194;28;20165;-90
2023/03/13 01:02:33;;;;;;;10.03;4.80;;;11.70;99.90;;;;;;5058467;28;20190;-92
2023/03/13 01:04:58;;;;;;;8.33;4.40;;;11.70;99.90;;;;;;5042485;28;20176;-89
2023/03/13 01:07:30;;;;;;;9.17;4.80;;;11.80;99.90;;;;;;5039610;28;20652;-91
2023/03/13 01:09:59;;;;;;;10.20;5.40;;;11.80;99.90;;;;;;5042538;28;20181;-87
2023/03/13 01:12:24;;;;;;;11.07;4.93;;;11.80;99.90;;;;;;5051543;28;20250;-91
2023/03/13 01:14:50;;;;;;;10.90;5.77;;;11.80;99.90;;;;;;5058856;28;20166;-88
2023/03/13 01:17:17;;;;;;;8.57;5.60;;;11.80;99.90;;;;;;5050920;28;20197;-88
2023/03/13 01:19:43;;;;;;;9.33;5.40;;;11.80;99.90;;;;;;5037684;28;20223;-91
2023/03/13 01:22:11;;;;;;;10.73;6.63;;;11.90;99.90;;;;;;5039059;28;20184;-88
2023/03/13 01:24:39;;;;;;;11.83;7.10;;;11.90;99.90;;;;;;5059108;28;20165;-89
2023/03/13 01:27:05;;;;;;;10.47;6.30;;;11.90;99.90;;;;;;5056518;28;20245;-89
2023/03/13 01:29:31;;;;;;;10.43;6.33;;;12.00;99.90;;;;;;5057886;28;20157;-91
2023/03/13 01:31:57;;;;;;;9.87;7.13;;;12.00;99.90;;;;;;5058490;28;20184;-89
2023/03/13 01:34:23;;;;;;;11.27;7.27;;;12.00;99.90;;;;;;5050706;28;20162;-88
2023/03/13 01:36:58;;;;;;;8.20;5.53;;;12.10;99.90;;;;;;5047563;28;20189;-90
2023/03/13 01:39:24;;;;;;;10.07;6.60;;;12.10;99.90;;;;;;5064783;23;20678;-92
2023/03/13 01:41:50;;;;;;;9.97;6.20;;;12.10;99.90;;;;;;5257858;22;20278;-91
2023/03/13 01:44:24;;;;;;;12.27;6.60;;;12.10;99.90;;;;;;5043238;28;20264;-92
2023/03/13 01:46:50;;;;;;;10.43;6.30;;;12.20;99.90;;;;;;5035007;28;20231;-93
2023/03/13 01:49:28;;;;;;;8.80;6.50;;;12.20;99.90;;;;;;5023393;28;20181;-92
2023/03/13 01:52:05;;;;;;;12.63;6.23;;;12.30;99.90;;;;;;5035889;28;20196;-93
2023/03/13 01:54:44;;;;;;;8.70;5.77;;;12.30;99.90;;;;;;5057157;28;20237;-92
2023/03/13 01:57:18;;;;;;;8.87;6.03;;;12.30;99.90;;;;;;5057838;28;20228;-92
2023/03/13 01:59:55;;;;;;;6.93;5.97;;;12.40;99.90;;;;;;5054979;28;20227;-89
2023/03/13 02:02:22;;;;;;;7.33;5.90;;;12.30;99.90;;;;;;5054538;28;20227;-91
2023/03/13 02:04:56;;;;;;;7.43;5.30;;;12.50;99.90;;;;;;5048555;28;20260;-91
2023/03/13 02:07:32;;;;;;;6.50;5.23;;;12.40;99.90;;;;;;5035392;28;20176;-92
2023/03/13 02:10:00;;;;;;;7.33;5.50;;;12.40;99.90;;;;;;5037096;28;20182;-94
2023/03/13 02:12:34;;;;;;;9.00;4.87;;;12.50;99.90;;;;;;5018418;28;20182;-92
2023/03/13 02:15:06;;;;;;;8.63;4.33;;;12.50;99.90;;;;;;5038947;28;20184;-94
2023/03/13 02:17:34;;;;;;;7.33;4.67;;;12.60;99.90;;;;;;5036529;28;20208;-92
2023/03/13 02:20:01;;;;;;;7.57;4.73;;;12.60;99.90;;;;;;5034378;28;20182;-93
2023/03/13 02:22:57;;;;;;;6.43;4.60;;;12.70;99.90;;;;;;5034208;28;20209;-93
2023/03/13 02:25:22;;;;;;;5.90;4.30;;;12.70;99.90;;;;;;5035265;28;20174;-93
2023/03/13 02:27:53;;;;;;;6.90;4.87;;;12.80;99.90;;;;;;5035612;28;20232;-92
2023/03/13 02:30:19;;;;;;;7.27;4.90;;;12.80;99.90;;;;;;5035288;28;20182;-92
2023/03/13 02:32:46;;;;;;;6.67;4.80;;;13.00;99.90;;;;;;5035338;28;20521;-93
2023/03/13 02:35:15;;;;;;;7.17;5.17;;;12.90;99.90;;;;;;5042997;28;20188;-89
2023/03/13 02:37:45;;;;;;;6.63;4.63;;;13.00;99.90;;;;;;5055621;28;20197;-89
2023/03/13 02:40:15;;;;;;;8.40;4.40;;;13.00;99.90;;;;;;5038766;28;20231;-89
2023/03/13 02:42:48;;;;;;;6.63;4.77;;;13.10;99.90;;;;;;5037612;28;20189;-93
2023/03/13 02:45:17;;;;;;;6.60;4.20;;;13.20;99.90;;;;;;5020243;28;20174;-90
2023/03/13 02:47:43;;;;;;;5.30;4.30;;;13.20;99.90;;;;;;5036432;28;20729;-93
2023/03/13 02:50:10;;;;;;;6.50;4.50;;;13.30;99.90;;;;;;5039688;28;20186;-91
2023/03/13 02:52:41;;;;;;;5.67;3.97;;;13.20;99.90;;;;;;5043660;28;20178;-92
2023/03/13 02:55:21;;;;;;;6.90;4.17;;;13.30;99.90;;;;;;5030175;28;20180;-93
2023/03/13 02:57:48;;;;;;;6.00;3.93;;;13.30;99.90;;;;;;5038415;28;20205;-93
2023/03/13 03:00:15;;;;;;;4.73;4.00;;;13.30;99.90;;;;;;5038632;28;20166;-93
2023/03/13 03:02:44;;;;;;;4.57;3.50;;;13.40;99.90;;;;;;5046402;28;20204;-92
2023/03/13 03:05:14;;;;;;;4.47;3.70;;;13.40;99.90;;;;;;5049696;28;20262;-93
2023/03/13 03:07:39;;;;;;;5.43;4.00;;;13.50;99.90;;;;;;5048304;28;20159;-88
2023/03/13 03:10:06;;;;;;;7.70;4.70;;;13.50;99.90;;;;;;5060663;28;20230;-87
2023/03/13 03:12:31;;;;;;;4.57;3.53;;;13.50;99.90;;;;;;5046791;28;20708;-91
2023/03/13 03:15:00;;;;;;;5.07;3.67;;;13.40;99.90;;;;;;5052829;28;20158;-87
2023/03/13 03:17:26;;;;;;;4.80;3.13;;;13.50;99.90;;;;;;5061275;28;20191;-88
2023/03/13 03:19:54;;;;;;;4.30;3.27;;;13.50;99.90;;;;;;5060795;28;20162;-87
2023/03/13 03:26:08;;;;;;;5.37;3.20;;;13.60;99.90;;;;;;5048616;28;20175;-91
2023/03/13 03:28:42;;;;;;;6.13;3.33;;;13.50;99.90;;;;;;5040729;28;20170;-92
2023/03/13 03:31:10;;;;;;;6.67;3.27;;;13.60;99.90;;;;;;5039597;28;20197;-91
2023/03/13 03:33:37;;;;;;;5.17;2.97;;;13.60;99.90;;;;;;5051122;28;20204;-90
2023/03/13 03:36:06;;;;;;;4.60;3.33;;;13.70;99.90;;;;;;5059542;28;20172;-90
2023/03/13 03:38:33;;;;;;;5.60;3.60;;;13.70;99.90;;;;;;5060478;28;20207;-91
2023/03/13 03:41:11;;;;;;;6.43;3.30;;;13.70;99.90;;;;;;5060320;28;20270;-87
2023/03/13 03:47:01;;;;;;;6.23;3.10;;;13.70;99.90;;;;;;5039529;28;20185;-93
2023/03/13 03:49:26;;;;;;;5.73;3.07;;;13.80;99.90;;;;;;5037172;28;20205;-92
2023/03/13 03:51:52;;;;;;;4.73;2.90;;;13.70;99.90;;;;;;5036299;28;20183;-88
2023/03/13 03:54:18;;;;;;;5.47;3.10;;;13.80;99.90;;;;;;5037164;28;20277;-88
2023/03/13 03:56:44;;;;;;;4.40;3.10;;;13.80;99.90;;;;;;5041637;28;20173;-92
2023/03/13 03:59:09;;;;;;;5.13;2.90;;;13.70;99.90;;;;;;5052128;28;20179;-91
2023/03/13 04:01:35;;;;;;;6.77;2.90;;;13.90;99.90;;;;;;5059690;28;20197;-90
2023/03/13 04:04:01;;;;;;;5.60;3.03;;;13.70;99.90;;;;;;5059700;28;20179;-92
2023/03/13 04:06:27;;;;;;;3.67;2.73;;;13.80;99.90;;;;;;5059607;28;20259;-90
2023/03/13 04:08:53;;;;;;;8.40;3.70;;;13.70;99.90;;;;;;5043458;28;20170;-91
2023/03/13 04:11:22;;;;;;;6.73;3.30;;;13.70;99.90;;;;;;5059942;28;20166;-89
2023/03/13 04:13:50;;;;;;;5.37;2.73;;;13.80;99.90;;;;;;5060012;28;20177;-88
2023/03/13 04:16:19;;;;;;;5.17;2.80;;;13.70;99.90;;;;;;5057888;28;20195;-88
2023/03/13 04:25:29;;;;;;;5.87;3.00;;;13.80;99.90;;;;;;5039011;28;20226;-90
2023/03/13 04:27:55;;;;;;;4.37;2.50;;;14.00;99.90;;;;;;5038186;28;20630;-87
2023/03/13 04:30:20;;;;;;;6.13;2.93;;;14.00;99.90;;;;;;5041693;28;20179;-92
2023/03/13 04:32:46;;;;;;;5.47;2.53;;;13.90;99.90;;;;;;5045871;28;20171;-90
2023/03/13 04:35:12;;;;;;;5.63;2.83;;;13.80;99.90;;;;;;5053409;28;20183;-86
2023/03/13 04:37:37;;;;;;;6.80;2.60;;;13.90;99.90;;;;;;5057389;28;20262;-85
2023/03/13 04:40:04;;;;;;;5.47;2.70;;;13.90;99.90;;;;;;5055661;28;20179;-85
2023/03/13 04:42:29;;;;;;;6.33;2.73;;;13.90;99.90;;;;;;5042097;28;20660;-84
2023/03/13 04:44:55;;;;;;;5.70;2.70;;;13.90;99.90;;;;;;5005824;28;20176;-90
2023/03/13 04:47:23;;;;;;;5.97;3.07;;;13.90;99.90;;;;;;5042276;28;20533;-85
2023/03/13 04:49:59;;;;;;;6.40;2.87;;;13.90;99.90;;;;;;5041837;28;20179;-84
2023/03/13 04:52:27;;;;;;;6.80;2.80;;;14.00;99.90;;;;;;5042567;28;20578;-93
2023/03/13 04:54:53;;;;;;;8.53;3.20;;;14.10;99.90;;;;;;5035966;28;20184;-87
2023/03/13 04:57:18;;;;;;;7.40;3.20;;;14.00;99.90;;;;;;5037069;28;20235;-90
2023/03/13 04:59:46;;;;;;;6.47;3.17;;;14.00;99.90;;;;;;5021399;28;20187;-92
2023/03/13 05:02:13;;;;;;;6.83;2.77;;;14.00;99.90;;;;;;5034837;28;20209;-92
2023/03/13 05:04:59;;;;;;;7.13;3.10;;;14.10;99.90;;;;;;5052735;28;20190;-92
2023/03/13 05:07:33;;;;;;;6.97;2.77;;;14.00;99.90;;;;;;5058236;28;20157;-88
2023/03/13 05:10:01;;;;;;;7.90;2.83;;;14.00;99.90;;;;;;5051200;28;20174;-91
2023/03/13 05:12:36;;;;;;;7.63;2.87;;;14.00;99.90;;;;;;5043942;28;20201;-91
2023/03/13 05:15:05;;;;;;;6.23;2.87;;;14.00;99.90;;;;;;5023100;28;20226;-91
2023/03/13 05:17:31;;;;;;;4.57;2.80;;;14.00;99.90;;;;;;5048369;28;20197;-89
2023/03/13 05:20:06;;;;;;;7.60;2.80;;;13.90;99.90;;;;;;5058037;28;20185;-88
2023/03/13 05:22:35;;;;;;;7.40;2.93;;;13.90;99.90;;;;;;5050020;28;20204;-92
2023/03/13 05:25:01;;;;;;;7.60;2.97;;;13.90;99.90;;;;;;5037187;28;20172;-89
2023/03/13 05:27:26;;;;;;;5.17;2.57;;;14.00;99.90;;;;;;5038978;28;20189;-91
2023/03/13 05:29:52;;;;;;;8.83;3.17;;;14.00;99.90;;;;;;5022355;28;20649;-88
2023/03/13 05:32:18;;;;;;;7.43;3.10;;;14.00;99.90;;;;;;5016492;28;20289;-91
2023/03/13 05:34:43;;;;;;;6.73;3.10;;;14.10;99.90;;;;;;5035018;28;20280;-92
2023/03/13 05:37:10;;;;;;;5.70;3.00;;;14.00;99.90;;;;;;5041894;28;20204;-87
2023/03/13 05:39:35;;;;;;;7.37;3.00;;;14.00;99.90;;;;;;5056502;28;20180;-92
2023/03/13 05:42:01;;;;;;;8.83;2.80;;;14.00;99.90;;;;;;5081187;28;20192;-88
2023/03/13 05:44:27;;;;;;;11.70;3.20;;;14.00;99.90;;;;;;5056046;28;20184;-88
2023/03/13 05:46:56;;;;;;;10.63;3.10;;;14.00;99.90;;;;;;5068668;28;20224;-87
2023/03/13 05:49:29;;;;;;;6.23;3.33;;;14.00;99.90;;;;;;5066249;28;20186;-89
2023/03/13 05:51:54;;;;;;;9.83;2.80;;;14.00;99.90;;;;;;5077543;28;20156;-90
2023/03/13 05:54:35;;;;;;;8.03;2.87;;;14.00;99.90;;;;;;5066348;28;20169;-89
2023/03/13 05:57:01;;;;;;;8.33;3.33;;;14.00;99.90;;;;;;5042307;28;20198;-94
2023/03/13 05:59:39;;;;;;;6.17;3.03;;;14.10;99.90;;;;;;5040134;28;20262;-90
2023/03/13 06:02:06;;;;;;;8.17;3.00;;;14.00;99.90;;;;;;5045386;28;20204;-91
2023/03/13 06:04:35;;;;;;;7.80;2.87;;;14.00;99.90;;;;;;5051208;28;20184;-89
2023/03/13 06:07:04;;;;;;;7.40;2.97;;;14.10;99.90;;;;;;5077369;28;20188;-90
2023/03/13 06:09:39;;;;;;;8.33;2.83;;;14.00;99.90;;;;;;5058612;28;20189;-91
2023/03/13 06:12:14;;;;;;;7.40;2.47;;;14.00;99.90;;;;;;5041469;28;20188;-88
2023/03/13 06:15:16;;;;;;;7.33;2.90;;;14.00;99.90;;;;;;5071116;28;20199;-88
2023/03/13 06:17:45;;;;;;;8.87;2.60;;;14.00;99.90;;;;;;5068490;28;20264;-90
2023/03/13 06:20:17;;;;;;;10.20;3.10;;;14.00;99.90;;;;;;5065114;28;20259;-93
2023/03/13 06:22:46;;;;;;;12.50;3.40;;;13.90;99.90;;;;;;5054593;28;20214;-88
2023/03/13 06:25:12;;;;;;;8.47;3.63;;;14.00;99.90;;;;;;5062164;28;20157;-91
2023/03/13 06:27:43;;;;;;;7.17;3.33;;;14.00;99.90;;;;;;5060492;28;20184;-94
2023/03/13 06:30:10;;;;;;;8.30;3.13;;;14.00;99.90;;;;;;5059954;28;20174;-91
2023/03/13 06:32:36;;;;;;;9.97;3.33;;;13.90;99.90;;;;;;5062589;28;20267;-94
2023/03/13 06:35:03;;;;;;;10.27;3.33;;;14.20;99.90;;;;;;5062422;28;20180;-94
2023/03/13 06:37:29;;;;;;;8.97;3.23;;;14.10;99.40;;;;;;5055520;28;20247;-91
2023/03/13 06:39:54;;;;;;;9.53;3.27;;;14.10;99.10;;;;;;5054276;28;20181;-91
2023/03/13 06:42:20;;;;;;;8.47;3.23;;;14.10;98.80;;;;;;5043578;28;20202;-89
2023/03/13 06:44:46;;;;;;;9.83;2.90;;;14.00;99.20;;;;;;5039226;28;20256;-87
2023/03/13 06:47:11;;;;;;;6.03;3.00;;;14.10;98.60;;;;;;5039644;28;20168;-87
2023/03/13 06:49:37;;;;;;;9.70;3.27;;;14.10;97.70;;;;;;5038405;28;20198;-89
2023/03/13 06:52:03;;;;;;;8.13;3.27;;;14.20;97.80;;;;;;5039444;28;20241;-86
2023/03/13 06:54:29;;;;;;;6.17;3.10;;;14.10;98.10;;;;;;5038673;28;20191;-88
2023/03/13 06:56:54;;;;;;;7.60;3.07;;;14.30;97.40;;;;;;5040742;28;20175;-90
2023/03/13 06:59:20;;;;;;;10.10;2.70;;;14.20;98.00;;;;;;5041670;28;20195;-92
2023/03/13 07:01:47;;;;;;;7.73;3.20;;;14.30;97.20;;;;;;5044376;28;20295;-86
2023/03/13 07:04:13;;;;;;;12.07;3.93;;;14.20;96.20;;;;;;5047943;28;20183;-86
2023/03/13 07:06:43;;;;;;;10.17;3.30;;;14.30;96.10;;;;;;5045265;28;20172;-87
2023/03/13 07:09:10;;;;;;;6.83;2.83;;;14.30;96.20;;;;;;5022776;28;20264;-88
2023/03/13 07:11:36;;;;;;;7.47;2.93;;;14.30;96.00;;;;;;5040573;28;20632;-84
2023/03/13 07:14:05;;;;;;;11.30;3.60;;;14.30;96.10;;;;;;5056176;28;20273;-94
2023/03/13 07:16:31;;;;;;;10.60;3.50;;;14.30;95.40;;;;;;5069913;28;20189;-90
2023/03/13 07:18:56;;;;;;;10.17;3.13;;;14.30;94.80;;;;;;5041939;28;20213;-87
2023/03/13 07:21:30;;;;;;;8.73;2.77;;;14.40;95.10;;;;;;5057798;28;20175;-88
2023/03/13 07:23:57;;;;;;;9.27;3.73;;;14.30;95.10;;;;;;5040764;28;20657;-92
2023/03/13 07:26:22;;;;;;;4.40;2.60;;;14.30;95.80;;;;;;5041945;28;20225;-89
2023/03/13 07:28:48;;;;;;;10.17;3.40;;;14.30;95.50;;;;;;5040930;28;20223;-87
2023/03/13 07:31:19;;;;;;;7.33;2.77;;;14.40;94.70;;;;;;5058624;28;20256;-88
2023/03/13 07:33:46;;;;;;;7.13;3.00;;;14.40;94.90;;;;;;5028730;28;20208;-93
2023/03/13 07:36:15;;;;;;;7.87;3.13;;;14.40;95.80;;;;;;5039853;28;20208;-92
2023/03/13 07:38:47;;;;;;;6.07;2.63;;;14.50;96.30;;;;;;5017419;28;20213;-90
2023/03/13 07:41:13;;;;;;;8.80;3.10;;;14.40;97.00;;;;;;5033242;28;20180;-92
2023/03/13 07:43:41;;;;;;;6.97;2.73;;;14.40;97.70;;;;;;5026001;28;20335;-90
2023/03/13 07:46:10;;;;;;;8.00;3.07;;;14.50;97.40;;;;;;5022703;28;20193;-89
2023/03/13 07:48:41;;;;;;;6.70;3.00;;;14.50;97.20;;;;;;5035659;28;20178;-89
2023/03/13 07:51:14;;;;;;;11.77;2.97;;;14.50;97.00;;;;;;5031376;28;20186;-89
2023/03/13 07:53:40;;;;;;;8.27;3.27;;;14.60;98.90;;;;;;5024985;28;20181;-89
2023/03/13 07:56:09;;;;;;;6.60;2.90;;;14.40;99.90;;;;;;5027087;28;20264;-90
2023/03/13 07:58:37;;;;;;;9.90;3.50;;;14.40;99.90;;;;;;5021978;28;20261;-88
2023/03/13 08:01:14;;;;;;;8.57;3.77;;;14.30;99.90;;;;;;5018724;28;20207;-91
2023/03/13 08:03:40;;;;;;;7.83;3.10;;;14.30;99.90;;;;;;5029884;28;20204;-89
2023/03/13 08:06:10;;;;;;;7.90;3.60;;;14.30;99.90;;;;;;5022357;28;20269;-87
2023/03/13 08:08:37;;;;;;;7.37;2.93;;;14.20;99.90;;;;;;5024511;28;20211;-93
2023/03/13 08:11:05;;;;;;;9.87;3.70;;;14.20;99.90;;;;;;5008507;28;20190;-94
2023/03/13 08:13:31;;;;;;;8.57;3.50;;;14.20;99.90;;;;;;5035418;28;20676;-92
2023/03/13 08:16:20;;;;;;;7.70;3.53;;;14.30;99.90;;;;;;5038233;28;20199;-88
2023/03/13 08:18:50;;;;;;;7.97;3.00;;;14.30;99.90;;;;;;5041296;28;20222;-94
2023/03/13 08:21:21;;;;;;;10.07;2.87;;;14.40;99.90;;;;;;5039049;28;20176;-95
2023/03/13 08:23:47;;;;;;;6.03;2.60;;;14.50;99.90;;;;;;5033680;28;20169;-93
2023/03/13 08:26:15;;;;;;;4.97;2.53;;;14.50;99.90;;;;;;5035824;28;20181;-89
2023/03/13 08:28:44;;;;;;;6.90;2.47;;;14.60;99.90;;;;;;5036258;28;20187;-89
2023/03/13 08:31:15;;;;;;;8.87;3.10;;;14.60;99.90;;;;;;5024675;28;20191;-87
2023/03/13 08:33:42;;;;;;;9.97;3.17;;;14.60;99.90;;;;;;5028380;28;20188;-88
2023/03/13 08:36:24;;;;;;;9.27;3.20;;;14.60;99.90;;;;;;5020605;28;20180;-92
2023/03/13 08:38:52;;;;;;;6.40;3.27;;;14.70;99.90;;;;;;5022544;28;20213;-91
2023/03/13 08:41:22;;;;;;;5.77;3.07;;;14.60;99.90;;;;;;5038128;28;20213;-92
2023/03/13 08:43:48;;;;;;;9.90;3.13;;;14.70;99.90;;;;;;5041169;28;20202;-89
2023/03/13 08:46:14;;;;;;;6.10;2.97;;;14.70;99.90;;;;;;5049098;28;20197;-90
2023/03/13 08:48:43;;;;;;;6.43;2.77;;;14.90;99.90;;;;;;5043630;28;20222;-87
2023/03/13 08:51:12;;;;;;;5.57;2.80;;;14.90;99.90;;;;;;5045600;28;20214;-89
2023/03/13 08:53:43;;;;;;;7.00;3.00;;;15.00;99.90;;;;;;5045160;28;20187;-85
2023/03/13 08:56:13;;;;;;;6.00;2.50;;;15.00;99.60;;;;;;5041265;28;20184;-87
2023/03/13 08:58:39;;;;;;;8.87;2.87;;;15.00;97.80;;;;;;5043798;28;20655;-89
2023/03/13 09:01:11;;;;;;;4.37;2.50;;;15.10;98.10;;;;;;5023866;28;20173;-87
2023/03/13 09:03:40;;;;;;;5.97;2.53;;;15.10;98.00;;;;;;5022942;28;20688;-86
2023/03/13 09:06:07;;;;;;;8.03;2.60;;;15.10;98.10;;;;;;5030352;28;20180;-88
2023/03/13 09:08:40;;;;;;;6.17;2.77;;;15.20;96.60;;;;;;5004184;28;20276;-88
2023/03/13 09:11:10;;;;;;;5.87;2.70;;;15.30;96.80;;;;;;5025140;28;20786;-84
2023/03/13 09:13:38;;;;;;;6.77;2.87;;;15.20;97.40;;;;;;5025594;28;20189;-91
2023/03/13 09:16:10;;;;;;;6.73;2.77;;;15.20;96.70;;;;;;5045966;28;20218;-88
2023/03/13 09:18:38;;;;;;;4.63;2.43;;;15.20;96.40;;;;;;5037976;28;20247;-90
2023/03/13 09:21:07;;;;;;;6.27;2.43;;;15.40;95.70;;;;;;5043131;28;20186;-88
2023/03/13 09:23:34;;;;;;;6.13;2.63;;;15.30;94.70;;;;;;5040078;28;20192;-88
2023/03/13 09:26:00;;;;;;;5.73;2.50;;;15.40;94.00;;;;;;5034401;28;20178;-89
2023/03/13 09:28:27;;;;;;;4.43;2.30;;;15.40;92.60;;;;;;5027032;28;20186;-90
2023/03/13 09:30:55;;;;;;;7.03;2.47;;;15.40;92.00;;;;;;5030417;28;20273;-89
2023/03/13 09:33:23;;;;;;;4.93;2.37;;;15.50;90.70;;;;;;5021258;28;20178;-92
2023/03/13 09:35:49;;;;;;;7.73;2.40;;;15.60;90.00;;;;;;5042704;28;20158;-90
2023/03/13 09:38:18;;;;;;;5.97;2.10;;;15.60;88.50;;;;;;5040300;28;20198;-91
2023/03/13 09:40:46;;;;;;;6.10;2.57;;;15.60;87.40;;;;;;5036430;28;20181;-91
2023/03/13 09:43:50;;;;;;;5.97;2.47;;;15.50;86.70;;;;;;5031797;28;20221;-86
2023/03/13 09:46:38;;;;;;;5.83;2.23;;;15.50;86.50;;;;;;5019894;28;20197;-89
2023/03/13 09:49:33;;;;;;;4.77;2.30;;;15.60;85.70;;;;;;5019727;28;20215;-86
2023/03/13 09:52:23;;;;;;;5.10;2.50;;;15.80;85.60;;;;;;5019803;28;20185;-87
2023/03/13 09:55:00;;;;;;;4.97;2.40;;;15.90;80.00;;;;;;5027840;28;20178;-89
2023/03/13 09:57:39;;;;;;;5.83;2.40;;;16.00;74.20;;;;;;5045567;28;20240;-89
2023/03/13 10:00:18;;;;;;;5.43;2.00;;;16.10;73.70;;;;;;5032726;28;20228;-87
2023/03/13 10:02:52;;;;;;;6.10;2.10;;;16.10;72.60;;;;;;5025711;28;20259;-89
2023/03/13 10:05:24;;;;;;;3.33;2.07;;;16.20;71.40;;;;;;5044905;28;20165;-90
2023/03/13 10:07:57;;;;;;;3.67;1.80;;;16.30;69.90;;;;;;5046447;28;20269;-90
2023/03/13 10:11:05;;;;;;;3.40;1.90;;;16.30;66.80;;;;;;5041625;28;20294;-85
2023/03/13 10:13:43;;;;;;;3.63;1.83;;;16.20;68.10;;;;;;5040617;28;20170;-87
2023/03/13 10:16:19;;;;;;;5.70;2.30;;;16.20;68.30;;;;;;5037301;28;20184;-91
2023/03/13 10:18:48;;;;;;;4.83;1.70;;;16.30;67.20;;;;;;5031607;28;20185;-90
2023/03/13 10:21:20;;;;;;;5.00;1.80;;;16.40;62.20;;;;;;5044749;28;20216;-88
2023/03/13 10:24:06;;;;;;;4.10;1.70;;;16.40;60.50;;;;;;5046765;28;20207;-86
2023/03/13 10:26:35;;;;;;;3.07;1.57;;;16.50;59.80;;;;;;5038540;28;20194;-87
2023/03/13 10:29:38;;;;;;;2.93;1.40;;;16.60;58.00;;;;;;5037169;28;20171;-85
2023/03/13 10:32:06;;;;;;;4.40;1.80;;;16.60;53.60;;;;;;5025318;28;20187;-88
2023/03/13 10:35:04;;;;;;;5.73;1.73;;;16.60;54.80;;;;;;5061193;28;20161;-86
2023/03/13 10:37:44;;;;;;;4.30;1.83;;;16.50;56.40;;;;;;5039067;28;20209;-89
2023/03/13 10:40:27;;;;;;;6.07;2.00;;;16.50;57.50;;;;;;5037132;28;20179;-93
2023/03/13 10:43:14;;;;;;;5.30;1.87;;;16.40;59.60;;;;;;5020440;28;20728;-92
2023/03/13 10:45:40;;;;;;;3.57;1.93;;;16.40;59.20;;;;;;5031225;28;20201;-90
2023/03/13 10:48:18;;;;;;;2.87;1.83;;;16.30;60.70;;;;;;5034616;28;20273;-90
2023/03/13 10:50:48;;;;;;;4.40;1.90;;;16.30;59.60;;;;;;5036610;28;20207;-91
2023/03/13 10:53:37;;;;;;;4.80;2.10;;;16.40;57.90;;;;;;5017541;28;20170;-89
2023/03/13 10:56:14;;;;;;;5.23;1.70;;;16.50;53.70;;;;;;5031390;28;20273;-92
2023/03/13 10:58:48;;;;;;;6.80;1.77;;;16.60;55.20;;;;;;5041435;28;20272;-93
2023/03/13 11:01:21;;;;;;;4.87;1.83;;;16.80;50.10;;;;;;5020028;28;20181;-89
2023/03/13 11:03:49;;;;;;;7.43;2.20;;;17.00;42.10;;;;;;5019736;28;20303;-91
2023/03/13 11:06:28;;;;;;;3.97;1.63;;;17.00;41.50;;;;;;5022526;28;20182;-93
2023/03/13 11:09:13;;;;;;;4.50;1.50;;;17.20;38.20;;;;;;5029573;28;20356;-90
2023/03/13 11:11:49;;;;;;;8.77;2.00;;;17.30;27.00;;;;;;5025130;28;20554;-92
2023/03/13 11:14:21;;;;;;;5.37;1.90;;;17.30;25.10;;;;;;5017794;28;20212;-92
2023/03/13 11:17:04;;;;;;;7.60;1.97;;;17.20;24.90;;;;;;5015658;28;20198;-91
2023/03/13 11:19:49;;;;;;;5.93;1.43;;;17.40;18.80;;;;;;5024192;28;20186;-92
2023/03/13 11:22:32;;;;;;;5.90;1.50;;;17.40;21.40;;;;;;5039670;28;20169;-89
2023/03/13 11:25:23;;;;;;;4.23;1.57;;;17.40;17.60;;;;;;5041043;28;20268;-92
2023/03/13 11:28:19;;;;;;;5.53;1.80;;;17.10;18.00;;;;;;5039886;28;20189;-92
2023/03/13 11:30:56;;;;;;;3.83;1.90;;;16.90;22.40;;;;;;5049972;28;20158;-91
2023/03/13 11:33:52;;;;;;;2.73;1.53;;;16.90;24.20;;;;;;5046107;28;20161;-92
2023/03/13 11:36:32;;;;;;;3.67;1.30;;;16.80;21.90;;;;;;5039402;28;20197;-89
2023/03/13 11:39:25;;;;;;;6.20;1.47;;;16.90;21.00;;;;;;5022748;28;20284;-93
2023/03/13 11:42:07;;;;;;;3.97;1.60;;;17.00;18.90;;;;;;5033850;28;20183;-92
2023/03/13 11:44:56;;;;;;;3.83;1.30;;;17.00;13.10;;;;;;5027394;28;20190;-89
2023/03/13 11:47:42;;;;;;;6.20;1.43;;;16.80;15.20;;;;;;5030427;28;20185;-92
2023/03/13 11:50:17;;;;;;;3.80;1.50;;;16.70;16.50;;;;;;5027730;28;20227;-91
2023/03/13 11:53:07;;;;;;;;;;;;;;;;;;;;;
2023/03/13 11:55:52;;;;;;;3.60;1.20;;;16.60;23.20;;;;;;5031874;28;20284;-91
2023/03/13 11:58:44;;;;;;;3.80;1.50;;;16.50;25.80;;;;;;5067484;28;20705;-89
2023/03/13 12:01:18;;;;;;;3.67;1.33;;;16.50;22.40;;;;;;5051796;28;20210;-90
2023/03/13 12:03:50;;;;;;;3.77;1.70;;;16.70;23.10;;;;;;5042890;28;20226;-89
2023/03/13 12:06:42;;;;;;;4.27;1.43;;;16.70;20.00;;;;;;5043948;28;20164;-88
2023/03/13 12:09:21;;;;;;;5.90;1.47;;;16.90;12.30;;;;;;5040268;28;20168;-88
2023/03/13 12:11:58;;;;;;;9.67;2.07;;;17.10;8.10;;;;;;5039012;28;20270;-87
2023/03/13 12:14:40;;;;;;;2.83;1.20;;;17.00;9.30;;;;;;5035261;28;20186;-87
2023/03/13 12:17:11;;;;;;;3.37;1.60;;;16.80;10.00;;;;;;5042649;28;20177;-89
2023/03/13 12:19:45;;;;;;;3.50;1.30;;;16.80;11.30;;;;;;5044848;28;20252;-89
2023/03/13 12:22:30;;;;;;;3.37;1.30;;;17.10;13.20;;;;;;5045812;28;20238;-89
2023/03/13 12:25:04;;;;;;;2.30;1.10;;;17.20;9.00;;;;;;5048079;28;20184;-90
2023/03/13 12:27:46;;;;;;;2.77;1.37;;;17.20;6.30;;;;;;5048639;28;20178;-85
2023/03/13 12:30:32;;;;;;;3.53;1.27;;;17.10;10.00;;;;;;5044871;28;20692;-91
2023/03/13 12:36:43;;;;;;;3.57;1.40;;;17.30;10.60;;;;;;5027943;28;20214;-87
2023/03/13 12:39:29;;;;;;;2.97;1.67;;;17.40;7.00;;;;;;5029007;28;20215;-87
2023/03/13 12:42:06;;;;;;;3.53;1.37;;;17.50;3.20;;;;;;5032282;28;20208;-95
2023/03/13 12:44:32;;;;;;;6.63;1.50;;;17.60;1.00;;;;;;5025534;28;20185;-89
2023/03/13 12:47:36;;;;;;;3.83;1.20;;;17.70;1.00;;;;;;5027236;28;20179;-88
2023/03/13 12:50:26;;;;;;;3.90;1.40;;;17.90;1.00;;;;;;5025607;28;20181;-93
2023/03/13 12:53:26;;;;;;;3.27;1.30;;;17.80;1.00;;;;;;5030332;28;20173;-87
2023/03/13 12:56:26;;;;;;;3.73;1.20;;;17.60;1.00;;;;;;5029275;28;20196;-87
2023/03/13 12:59:04;;;;;;;3.80;1.53;;;17.40;1.00;;;;;;5030636;28;20237;-87
2023/03/13 13:01:46;;;;;;;2.90;1.33;;;17.30;1.00;;;;;;5044906;28;20261;-85
2023/03/13 13:04:18;;;;;;;4.00;1.70;;;17.10;1.00;;;;;;5050958;28;20250;-85
2023/03/13 13:07:03;;;;;;;3.30;1.20;;;17.10;1.00;;;;;;5040203;28;20157;-86
2023/03/13 13:09:58;;;;;;;5.93;1.40;;;17.20;1.00;;;;;;5025296;28;20194;-91
2023/03/13 13:12:31;;;;;;;6.30;1.60;;;17.20;1.00;;;;;;5038950;28;20182;-94
2023/03/13 13:15:28;;;;;;;3.43;1.50;;;17.20;1.00;;;;;;5032924;28;20193;-93
2023/03/13 13:18:00;;;;;;;4.70;1.60;;;17.00;1.00;;;;;;5037903;28;20240;-94
2023/03/13 13:20:39;;;;;;;3.60;1.47;;;16.90;1.40;;;;;;5033387;28;20186;-93
2023/03/13 13:23:25;;;;;;;3.87;1.60;;;16.90;1.90;;;;;;5031888;28;20181;-93
2023/03/13 13:25:52;;;;;;;5.40;2.20;;;17.10;1.00;;;;;;5030576;28;20218;-88
2023/03/13 13:28:25;;;;;;;4.53;1.90;;;17.20;1.00;;;;;;5041987;28;20197;-92
2023/03/13 13:30:53;;;;;;;4.87;2.23;;;17.10;1.00;;;;;;5032559;28;20263;-92
2023/03/13 13:33:19;;;;;;;4.53;2.30;;;17.20;1.00;;;;;;5012649;28;20184;-95
2023/03/13 13:36:08;;;;;;;5.40;1.57;;;17.30;1.00;;;;;;5033791;28;20244;-94